sensor_id;sensor_type;location;lat;lon;timestamp;P1;durP1;ratioP1;P2;durP2;ratioP2
53253;SDS011;39148;53.332;6.922;2023-04-06T00:01:40;5.57;;;3.42;;
53253;SDS011;39148;53.332;6.922;2023-04-06T00:04:06;7.15;;;3.92;;
53253;SDS011;39148;53.332;6.922;2023-04-06T00:06:33;7.32;;;3.78;;
53253;SDS011;39148;53.332;6.922;2023-04-06T00:08:59;5.93;;;3.92;;
53253;SDS011;39148;53.332;6.922;2023-04-06T00:11:25;6.38;;;4.25;;
53253;SDS011;39148;53.332;6.922;2023-04-06T00:13:52;6.50;;;3.90;;
53253;SDS011;39148;53.332;6.922;2023-04-06T00:16:18;6.82;;;4.00;;
53253;SDS011;39148;53.332;6.922;2023-04-06T00:18:44;6.90;;;4.00;;
53253;SDS011;39148;53.332;6.922;2023-04-06T00:21:11;6.18;;;3.72;;
53253;SDS011;39148;53.332;6.922;2023-04-06T00:23:41;6.15;;;3.60;;
53253;SDS011;39148;53.332;6.922;2023-04-06T00:26:10;6.85;;;3.70;;
53253;SDS011;39148;53.332;6.922;2023-04-06T00:28:37;7.20;;;3.50;;
53253;SDS011;39148;53.332;6.922;2023-04-06T00:31:03;5.47;;;3.80;;
53253;SDS011;39148;53.332;6.922;2023-04-06T00:33:29;6.82;;;3.83;;
53253;SDS011;39148;53.332;6.922;2023-04-06T00:35:55;6.60;;;4.22;;
53253;SDS011;39148;53.332;6.922;2023-04-06T00:38:21;7.00;;;4.00;;
53253;SDS011;39148;53.332;6.922;2023-04-06T00:40:48;6.65;;;4.40;;
53253;SDS011;39148;53.332;6.922;2023-04-06T00:43:14;7.22;;;4.35;;
53253;SDS011;39148;53.332;6.922;2023-04-06T00:45:40;6.72;;;4.35;;
53253;SDS011;39148;53.332;6.922;2023-04-06T00:48:07;7.20;;;4.22;;
53253;SDS011;39148;53.332;6.922;2023-04-06T00:50:33;7.65;;;4.75;;
53253;SDS011;39148;53.332;6.922;2023-04-06T00:53:00;6.10;;;4.03;;
53253;SDS011;39148;53.332;6.922;2023-04-06T00:55:26;7.18;;;3.78;;
53253;SDS011;39148;53.332;6.922;2023-04-06T00:57:53;7.20;;;4.60;;
53253;SDS011;39148;53.332;6.922;2023-04-06T01:00:19;6.68;;;4.18;;
53253;SDS011;39148;53.332;6.922;2023-04-06T01:02:45;8.63;;;3.90;;
53253;SDS011;39148;53.332;6.922;2023-04-06T01:05:12;7.45;;;4.20;;
53253;SDS011;39148;53.332;6.922;2023-04-06T01:07:39;6.72;;;4.25;;
53253;SDS011;39148;53.332;6.922;2023-04-06T01:10:05;6.03;;;3.83;;
53253;SDS011;39148;53.332;6.922;2023-04-06T01:12:31;7.03;;;4.03;;
53253;SDS011;39148;53.332;6.922;2023-04-06T01:14:57;5.97;;;3.88;;
53253;SDS011;39148;53.332;6.922;2023-04-06T01:17:24;8.45;;;4.07;;
53253;SDS011;39148;53.332;6.922;2023-04-06T01:19:50;6.75;;;3.75;;
53253;SDS011;39148;53.332;6.922;2023-04-06T01:22:18;7.45;;;4.53;;
53253;SDS011;39148;53.332;6.922;2023-04-06T01:24:45;6.32;;;4.28;;
53253;SDS011;39148;53.332;6.922;2023-04-06T01:27:12;9.25;;;4.20;;
53253;SDS011;39148;53.332;6.922;2023-04-06T01:29:38;6.78;;;4.05;;
53253;SDS011;39148;53.332;6.922;2023-04-06T01:32:07;7.60;;;3.97;;
53253;SDS011;39148;53.332;6.922;2023-04-06T01:34:34;7.05;;;4.10;;
53253;SDS011;39148;53.332;6.922;2023-04-06T01:37:00;6.45;;;4.03;;
53253;SDS011;39148;53.332;6.922;2023-04-06T01:39:27;6.43;;;4.13;;
53253;SDS011;39148;53.332;6.922;2023-04-06T01:41:53;6.88;;;4.40;;
53253;SDS011;39148;53.332;6.922;2023-04-06T01:44:19;6.68;;;4.20;;
53253;SDS011;39148;53.332;6.922;2023-04-06T01:46:45;6.57;;;4.30;;
53253;SDS011;39148;53.332;6.922;2023-04-06T01:49:11;7.35;;;4.32;;
53253;SDS011;39148;53.332;6.922;2023-04-06T01:51:37;6.38;;;4.20;;
53253;SDS011;39148;53.332;6.922;2023-04-06T01:54:03;6.22;;;4.10;;
53253;SDS011;39148;53.332;6.922;2023-04-06T01:56:30;6.90;;;4.50;;
53253;SDS011;39148;53.332;6.922;2023-04-06T01:58:56;6.40;;;4.20;;
53253;SDS011;39148;53.332;6.922;2023-04-06T02:01:22;7.10;;;4.68;;
53253;SDS011;39148;53.332;6.922;2023-04-06T02:03:48;5.97;;;4.15;;
53253;SDS011;39148;53.332;6.922;2023-04-06T02:06:14;6.60;;;4.25;;
53253;SDS011;39148;53.332;6.922;2023-04-06T02:08:40;7.65;;;4.32;;
53253;SDS011;39148;53.332;6.922;2023-04-06T02:11:06;7.78;;;4.47;;
53253;SDS011;39148;53.332;6.922;2023-04-06T02:13:32;6.63;;;4.50;;
53253;SDS011;39148;53.332;6.922;2023-04-06T02:15:58;7.50;;;4.63;;
53253;SDS011;39148;53.332;6.922;2023-04-06T02:18:25;7.63;;;4.53;;
53253;SDS011;39148;53.332;6.922;2023-04-06T02:20:51;7.07;;;4.30;;
53253;SDS011;39148;53.332;6.922;2023-04-06T02:23:17;8.38;;;4.35;;
53253;SDS011;39148;53.332;6.922;2023-04-06T02:25:43;8.35;;;4.18;;
53253;SDS011;39148;53.332;6.922;2023-04-06T02:28:09;6.80;;;4.20;;
53253;SDS011;39148;53.332;6.922;2023-04-06T02:30:35;7.70;;;4.15;;
53253;SDS011;39148;53.332;6.922;2023-04-06T02:33:01;7.30;;;4.40;;
53253;SDS011;39148;53.332;6.922;2023-04-06T02:35:28;7.15;;;4.65;;
53253;SDS011;39148;53.332;6.922;2023-04-06T02:37:55;7.18;;;4.78;;
53253;SDS011;39148;53.332;6.922;2023-04-06T02:40:21;6.78;;;4.13;;
53253;SDS011;39148;53.332;6.922;2023-04-06T02:42:46;7.90;;;4.70;;
53253;SDS011;39148;53.332;6.922;2023-04-06T02:45:13;8.15;;;4.72;;
53253;SDS011;39148;53.332;6.922;2023-04-06T02:47:39;6.78;;;4.38;;
53253;SDS011;39148;53.332;6.922;2023-04-06T02:50:05;7.90;;;4.47;;
53253;SDS011;39148;53.332;6.922;2023-04-06T02:52:31;7.32;;;4.38;;
53253;SDS011;39148;53.332;6.922;2023-04-06T02:54:58;8.38;;;4.75;;
53253;SDS011;39148;53.332;6.922;2023-04-06T02:57:24;6.55;;;4.25;;
53253;SDS011;39148;53.332;6.922;2023-04-06T02:59:49;7.88;;;4.85;;
53253;SDS011;39148;53.332;6.922;2023-04-06T03:02:15;8.52;;;5.20;;
53253;SDS011;39148;53.332;6.922;2023-04-06T03:04:42;7.40;;;4.22;;
53253;SDS011;39148;53.332;6.922;2023-04-06T03:07:08;6.93;;;4.30;;
53253;SDS011;39148;53.332;6.922;2023-04-06T03:09:36;7.30;;;4.68;;
53253;SDS011;39148;53.332;6.922;2023-04-06T03:12:02;6.75;;;4.55;;
53253;SDS011;39148;53.332;6.922;2023-04-06T03:14:28;8.00;;;4.53;;
53253;SDS011;39148;53.332;6.922;2023-04-06T03:16:54;7.18;;;4.47;;
53253;SDS011;39148;53.332;6.922;2023-04-06T03:19:20;7.25;;;4.50;;
53253;SDS011;39148;53.332;6.922;2023-04-06T03:21:46;7.35;;;5.45;;
53253;SDS011;39148;53.332;6.922;2023-04-06T03:24:13;6.82;;;4.55;;
53253;SDS011;39148;53.332;6.922;2023-04-06T03:26:39;6.90;;;4.45;;
53253;SDS011;39148;53.332;6.922;2023-04-06T03:29:05;6.13;;;3.97;;
53253;SDS011;39148;53.332;6.922;2023-04-06T03:31:31;7.50;;;5.05;;
53253;SDS011;39148;53.332;6.922;2023-04-06T03:33:57;7.47;;;4.45;;
53253;SDS011;39148;53.332;6.922;2023-04-06T03:36:24;6.55;;;4.60;;
53253;SDS011;39148;53.332;6.922;2023-04-06T03:38:51;7.57;;;4.88;;
53253;SDS011;39148;53.332;6.922;2023-04-06T03:41:18;7.05;;;4.30;;
53253;SDS011;39148;53.332;6.922;2023-04-06T03:43:44;8.65;;;4.75;;
53253;SDS011;39148;53.332;6.922;2023-04-06T03:46:11;9.02;;;4.50;;
53253;SDS011;39148;53.332;6.922;2023-04-06T03:48:37;7.38;;;4.53;;
53253;SDS011;39148;53.332;6.922;2023-04-06T03:51:03;8.35;;;4.82;;
53253;SDS011;39148;53.332;6.922;2023-04-06T03:53:29;7.50;;;4.70;;
53253;SDS011;39148;53.332;6.922;2023-04-06T03:55:55;7.50;;;4.70;;
53253;SDS011;39148;53.332;6.922;2023-04-06T03:58:21;6.97;;;5.07;;
53253;SDS011;39148;53.332;6.922;2023-04-06T04:00:47;7.20;;;4.95;;
53253;SDS011;39148;53.332;6.922;2023-04-06T04:03:13;9.63;;;5.15;;
53253;SDS011;39148;53.332;6.922;2023-04-06T04:05:39;8.23;;;5.43;;
53253;SDS011;39148;53.332;6.922;2023-04-06T04:08:06;9.18;;;5.18;;
53253;SDS011;39148;53.332;6.922;2023-04-06T04:10:32;7.43;;;5.15;;
53253;SDS011;39148;53.332;6.922;2023-04-06T04:12:58;7.47;;;4.90;;
53253;SDS011;39148;53.332;6.922;2023-04-06T04:15:24;9.90;;;5.82;;
53253;SDS011;39148;53.332;6.922;2023-04-06T04:17:50;7.10;;;4.75;;
53253;SDS011;39148;53.332;6.922;2023-04-06T04:20:16;7.35;;;4.88;;
53253;SDS011;39148;53.332;6.922;2023-04-06T04:22:42;8.32;;;5.28;;
53253;SDS011;39148;53.332;6.922;2023-04-06T04:25:09;7.78;;;5.32;;
53253;SDS011;39148;53.332;6.922;2023-04-06T04:27:35;10.60;;;6.20;;
53253;SDS011;39148;53.332;6.922;2023-04-06T04:30:01;8.18;;;5.22;;
53253;SDS011;39148;53.332;6.922;2023-04-06T04:32:27;8.68;;;5.53;;
53253;SDS011;39148;53.332;6.922;2023-04-06T04:34:53;8.65;;;5.53;;
53253;SDS011;39148;53.332;6.922;2023-04-06T04:37:19;8.20;;;5.13;;
53253;SDS011;39148;53.332;6.922;2023-04-06T04:39:46;8.48;;;5.80;;
53253;SDS011;39148;53.332;6.922;2023-04-06T04:42:12;8.77;;;5.40;;
53253;SDS011;39148;53.332;6.922;2023-04-06T04:44:38;8.35;;;6.05;;
53253;SDS011;39148;53.332;6.922;2023-04-06T04:47:04;9.38;;;6.05;;
53253;SDS011;39148;53.332;6.922;2023-04-06T04:49:30;9.75;;;5.95;;
53253;SDS011;39148;53.332;6.922;2023-04-06T04:51:56;9.70;;;6.68;;
53253;SDS011;39148;53.332;6.922;2023-04-06T04:54:23;9.57;;;6.20;;
53253;SDS011;39148;53.332;6.922;2023-04-06T04:56:49;9.50;;;6.07;;
53253;SDS011;39148;53.332;6.922;2023-04-06T04:59:15;9.85;;;6.10;;
53253;SDS011;39148;53.332;6.922;2023-04-06T05:01:41;10.40;;;6.32;;
53253;SDS011;39148;53.332;6.922;2023-04-06T05:04:07;10.50;;;6.68;;
53253;SDS011;39148;53.332;6.922;2023-04-06T05:06:33;11.45;;;6.13;;
53253;SDS011;39148;53.332;6.922;2023-04-06T05:08:59;10.50;;;6.40;;
53253;SDS011;39148;53.332;6.922;2023-04-06T05:11:25;10.52;;;6.55;;
53253;SDS011;39148;53.332;6.922;2023-04-06T05:13:52;10.02;;;6.45;;
53253;SDS011;39148;53.332;6.922;2023-04-06T05:16:18;9.18;;;6.43;;
53253;SDS011;39148;53.332;6.922;2023-04-06T05:18:44;9.60;;;6.13;;
53253;SDS011;39148;53.332;6.922;2023-04-06T05:21:10;9.63;;;6.47;;
53253;SDS011;39148;53.332;6.922;2023-04-06T05:23:36;9.00;;;6.47;;
53253;SDS011;39148;53.332;6.922;2023-04-06T05:26:03;9.65;;;6.07;;
53253;SDS011;39148;53.332;6.922;2023-04-06T05:28:29;9.85;;;6.38;;
53253;SDS011;39148;53.332;6.922;2023-04-06T05:30:55;9.38;;;6.38;;
53253;SDS011;39148;53.332;6.922;2023-04-06T05:33:22;12.18;;;7.35;;
53253;SDS011;39148;53.332;6.922;2023-04-06T05:35:48;10.57;;;6.28;;
53253;SDS011;39148;53.332;6.922;2023-04-06T05:38:14;8.95;;;6.03;;
53253;SDS011;39148;53.332;6.922;2023-04-06T05:40:40;10.07;;;6.72;;
53253;SDS011;39148;53.332;6.922;2023-04-06T05:43:07;8.95;;;5.82;;
53253;SDS011;39148;53.332;6.922;2023-04-06T05:45:33;8.38;;;5.85;;
53253;SDS011;39148;53.332;6.922;2023-04-06T05:48:00;9.60;;;5.80;;
53253;SDS011;39148;53.332;6.922;2023-04-06T05:50:27;8.80;;;6.00;;
53253;SDS011;39148;53.332;6.922;2023-04-06T05:52:53;9.80;;;6.47;;
53253;SDS011;39148;53.332;6.922;2023-04-06T05:55:19;8.57;;;5.90;;
53253;SDS011;39148;53.332;6.922;2023-04-06T05:57:45;10.45;;;6.45;;
53253;SDS011;39148;53.332;6.922;2023-04-06T06:00:11;10.10;;;6.38;;
53253;SDS011;39148;53.332;6.922;2023-04-06T06:02:38;8.68;;;5.72;;
53253;SDS011;39148;53.332;6.922;2023-04-06T06:05:04;10.70;;;6.07;;
53253;SDS011;39148;53.332;6.922;2023-04-06T06:07:30;8.63;;;6.18;;
53253;SDS011;39148;53.332;6.922;2023-04-06T06:09:57;12.45;;;6.50;;
53253;SDS011;39148;53.332;6.922;2023-04-06T06:12:23;8.80;;;5.60;;
53253;SDS011;39148;53.332;6.922;2023-04-06T06:14:49;10.55;;;6.30;;
53253;SDS011;39148;53.332;6.922;2023-04-06T06:17:16;9.25;;;5.90;;
53253;SDS011;39148;53.332;6.922;2023-04-06T06:19:42;10.35;;;6.05;;
53253;SDS011;39148;53.332;6.922;2023-04-06T06:22:08;10.57;;;6.82;;
53253;SDS011;39148;53.332;6.922;2023-04-06T06:24:34;10.70;;;5.85;;
53253;SDS011;39148;53.332;6.922;2023-04-06T06:27:00;10.20;;;6.30;;
53253;SDS011;39148;53.332;6.922;2023-04-06T06:29:26;11.13;;;6.35;;
53253;SDS011;39148;53.332;6.922;2023-04-06T06:31:52;10.43;;;5.97;;
53253;SDS011;39148;53.332;6.922;2023-04-06T06:34:19;9.43;;;6.40;;
53253;SDS011;39148;53.332;6.922;2023-04-06T06:36:45;9.73;;;5.90;;
53253;SDS011;39148;53.332;6.922;2023-04-06T06:39:11;10.43;;;6.03;;
53253;SDS011;39148;53.332;6.922;2023-04-06T06:41:37;11.20;;;5.75;;
53253;SDS011;39148;53.332;6.922;2023-04-06T06:44:03;10.65;;;5.90;;
53253;SDS011;39148;53.332;6.922;2023-04-06T06:46:30;11.02;;;6.15;;
53253;SDS011;39148;53.332;6.922;2023-04-06T06:48:57;14.05;;;6.30;;
53253;SDS011;39148;53.332;6.922;2023-04-06T06:51:23;9.90;;;5.75;;
53253;SDS011;39148;53.332;6.922;2023-04-06T06:53:49;9.65;;;6.00;;
53253;SDS011;39148;53.332;6.922;2023-04-06T06:56:15;13.10;;;5.97;;
53253;SDS011;39148;53.332;6.922;2023-04-06T06:58:41;8.82;;;5.65;;
53253;SDS011;39148;53.332;6.922;2023-04-06T07:01:07;11.05;;;6.45;;
53253;SDS011;39148;53.332;6.922;2023-04-06T07:03:33;11.10;;;6.20;;
53253;SDS011;39148;53.332;6.922;2023-04-06T07:05:58;9.18;;;6.20;;
53253;SDS011;39148;53.332;6.922;2023-04-06T07:08:24;8.25;;;5.60;;
53253;SDS011;39148;53.332;6.922;2023-04-06T07:10:51;8.45;;;5.80;;
53253;SDS011;39148;53.332;6.922;2023-04-06T07:13:18;9.02;;;6.15;;
53253;SDS011;39148;53.332;6.922;2023-04-06T07:15:51;14.90;;;6.33;;
53253;SDS011;39148;53.332;6.922;2023-04-06T07:18:17;11.18;;;6.07;;
53253;SDS011;39148;53.332;6.922;2023-04-06T07:20:44;8.32;;;5.43;;
53253;SDS011;39148;53.332;6.922;2023-04-06T07:23:09;9.65;;;6.18;;
53253;SDS011;39148;53.332;6.922;2023-04-06T07:25:36;9.35;;;5.53;;
53253;SDS011;39148;53.332;6.922;2023-04-06T07:28:02;9.45;;;5.85;;
53253;SDS011;39148;53.332;6.922;2023-04-06T07:30:29;12.45;;;6.40;;
53253;SDS011;39148;53.332;6.922;2023-04-06T07:32:55;8.60;;;5.40;;
53253;SDS011;39148;53.332;6.922;2023-04-06T07:35:22;10.10;;;6.10;;
53253;SDS011;39148;53.332;6.922;2023-04-06T07:37:49;8.95;;;5.75;;
53253;SDS011;39148;53.332;6.922;2023-04-06T07:40:15;9.15;;;5.32;;
53253;SDS011;39148;53.332;6.922;2023-04-06T07:42:41;10.15;;;5.70;;
53253;SDS011;39148;53.332;6.922;2023-04-06T07:45:07;9.75;;;5.20;;
53253;SDS011;39148;53.332;6.922;2023-04-06T07:47:33;8.80;;;5.75;;
53253;SDS011;39148;53.332;6.922;2023-04-06T07:49:59;7.50;;;5.00;;
53253;SDS011;39148;53.332;6.922;2023-04-06T07:52:25;7.97;;;5.65;;
53253;SDS011;39148;53.332;6.922;2023-04-06T07:54:51;9.27;;;5.22;;
53253;SDS011;39148;53.332;6.922;2023-04-06T07:57:18;8.50;;;5.63;;
53253;SDS011;39148;53.332;6.922;2023-04-06T07:59:44;7.72;;;5.40;;
53253;SDS011;39148;53.332;6.922;2023-04-06T08:02:10;10.23;;;5.22;;
53253;SDS011;39148;53.332;6.922;2023-04-06T08:04:36;9.77;;;5.93;;
53253;SDS011;39148;53.332;6.922;2023-04-06T08:07:02;8.05;;;5.13;;
53253;SDS011;39148;53.332;6.922;2023-04-06T08:09:28;9.15;;;6.13;;
53253;SDS011;39148;53.332;6.922;2023-04-06T08:11:55;8.13;;;5.00;;
53253;SDS011;39148;53.332;6.922;2023-04-06T08:14:21;7.65;;;5.28;;
53253;SDS011;39148;53.332;6.922;2023-04-06T08:16:47;6.95;;;5.07;;
53253;SDS011;39148;53.332;6.922;2023-04-06T08:19:13;7.03;;;4.78;;
53253;SDS011;39148;53.332;6.922;2023-04-06T08:21:42;8.70;;;4.88;;
53253;SDS011;39148;53.332;6.922;2023-04-06T08:24:08;7.43;;;4.95;;
53253;SDS011;39148;53.332;6.922;2023-04-06T08:26:34;8.18;;;5.18;;
53253;SDS011;39148;53.332;6.922;2023-04-06T08:29:00;6.57;;;4.35;;
53253;SDS011;39148;53.332;6.922;2023-04-06T08:31:26;8.15;;;5.05;;
53253;SDS011;39148;53.332;6.922;2023-04-06T08:33:52;7.60;;;4.70;;
53253;SDS011;39148;53.332;6.922;2023-04-06T08:36:19;7.22;;;4.93;;
53253;SDS011;39148;53.332;6.922;2023-04-06T08:38:48;8.18;;;5.18;;
53253;SDS011;39148;53.332;6.922;2023-04-06T08:41:15;7.60;;;5.47;;
53253;SDS011;39148;53.332;6.922;2023-04-06T08:43:46;7.18;;;4.93;;
53253;SDS011;39148;53.332;6.922;2023-04-06T08:46:12;7.97;;;5.15;;
53253;SDS011;39148;53.332;6.922;2023-04-06T08:48:39;7.93;;;5.13;;
53253;SDS011;39148;53.332;6.922;2023-04-06T08:51:06;7.47;;;4.93;;
53253;SDS011;39148;53.332;6.922;2023-04-06T08:53:32;7.43;;;4.90;;
53253;SDS011;39148;53.332;6.922;2023-04-06T08:55:58;6.65;;;4.63;;
53253;SDS011;39148;53.332;6.922;2023-04-06T08:58:25;7.43;;;4.78;;
53253;SDS011;39148;53.332;6.922;2023-04-06T09:00:53;7.82;;;4.65;;
53253;SDS011;39148;53.332;6.922;2023-04-06T09:03:20;7.13;;;4.53;;
53253;SDS011;39148;53.332;6.922;2023-04-06T09:05:47;7.20;;;4.53;;
53253;SDS011;39148;53.332;6.922;2023-04-06T09:08:13;7.82;;;4.75;;
53253;SDS011;39148;53.332;6.922;2023-04-06T09:10:40;6.70;;;4.53;;
53253;SDS011;39148;53.332;6.922;2023-04-06T09:13:06;7.63;;;5.05;;
53253;SDS011;39148;53.332;6.922;2023-04-06T09:15:33;7.82;;;4.95;;
53253;SDS011;39148;53.332;6.922;2023-04-06T09:18:00;7.38;;;5.03;;
53253;SDS011;39148;53.332;6.922;2023-04-06T09:20:26;6.95;;;4.25;;
53253;SDS011;39148;53.332;6.922;2023-04-06T09:22:53;6.03;;;4.32;;
53253;SDS011;39148;53.332;6.922;2023-04-06T09:25:23;6.28;;;4.15;;
53253;SDS011;39148;53.332;6.922;2023-04-06T09:28:03;8.18;;;5.28;;
53253;SDS011;39148;53.332;6.922;2023-04-06T09:30:29;7.90;;;4.50;;
53253;SDS011;39148;53.332;6.922;2023-04-06T09:32:56;7.82;;;4.45;;
53253;SDS011;39148;53.332;6.922;2023-04-06T09:35:23;6.95;;;4.32;;
53253;SDS011;39148;53.332;6.922;2023-04-06T09:37:51;6.90;;;4.50;;
53253;SDS011;39148;53.332;6.922;2023-04-06T09:40:17;7.32;;;4.03;;
53253;SDS011;39148;53.332;6.922;2023-04-06T09:42:47;6.55;;;4.13;;
53253;SDS011;39148;53.332;6.922;2023-04-06T09:47:42;8.63;;;5.10;;
53253;SDS011;39148;53.332;6.922;2023-04-06T09:50:10;6.43;;;4.45;;
53253;SDS011;39148;53.332;6.922;2023-04-06T09:52:46;9.68;;;4.93;;
53253;SDS011;39148;53.332;6.922;2023-04-06T09:55:15;7.20;;;5.10;;
53253;SDS011;39148;53.332;6.922;2023-04-06T10:00:16;8.55;;;5.13;;
53253;SDS011;39148;53.332;6.922;2023-04-06T10:02:45;7.18;;;5.00;;
53253;SDS011;39148;53.332;6.922;2023-04-06T10:07:57;7.88;;;4.90;;
53253;SDS011;39148;53.332;6.922;2023-04-06T10:10:25;8.25;;;5.10;;
53253;SDS011;39148;53.332;6.922;2023-04-06T10:12:52;7.22;;;4.82;;
53253;SDS011;39148;53.332;6.922;2023-04-06T10:15:19;8.13;;;5.45;;
53253;SDS011;39148;53.332;6.922;2023-04-06T10:17:45;7.53;;;5.32;;
53253;SDS011;39148;53.332;6.922;2023-04-06T10:20:15;8.90;;;5.82;;
53253;SDS011;39148;53.332;6.922;2023-04-06T10:22:44;9.07;;;5.40;;
53253;SDS011;39148;53.332;6.922;2023-04-06T10:25:16;7.95;;;5.50;;
53253;SDS011;39148;53.332;6.922;2023-04-06T10:27:42;8.07;;;5.43;;
53253;SDS011;39148;53.332;6.922;2023-04-06T10:30:08;8.32;;;5.88;;
53253;SDS011;39148;53.332;6.922;2023-04-06T10:32:35;8.32;;;5.60;;
53253;SDS011;39148;53.332;6.922;2023-04-06T10:35:05;8.27;;;5.55;;
53253;SDS011;39148;53.332;6.922;2023-04-06T10:37:45;7.60;;;5.53;;
53253;SDS011;39148;53.332;6.922;2023-04-06T10:40:18;9.27;;;5.93;;
53253;SDS011;39148;53.332;6.922;2023-04-06T10:42:44;8.23;;;5.93;;
53253;SDS011;39148;53.332;6.922;2023-04-06T10:45:18;8.90;;;5.90;;
53253;SDS011;39148;53.332;6.922;2023-04-06T10:47:45;8.45;;;5.93;;
53253;SDS011;39148;53.332;6.922;2023-04-06T10:50:13;8.00;;;5.85;;
53253;SDS011;39148;53.332;6.922;2023-04-06T10:52:41;9.68;;;6.63;;
53253;SDS011;39148;53.332;6.922;2023-04-06T10:55:08;8.38;;;5.97;;
53253;SDS011;39148;53.332;6.922;2023-04-06T10:57:37;8.85;;;6.15;;
53253;SDS011;39148;53.332;6.922;2023-04-06T11:00:06;9.68;;;5.88;;
53253;SDS011;39148;53.332;6.922;2023-04-06T11:02:33;8.68;;;6.50;;
53253;SDS011;39148;53.332;6.922;2023-04-06T11:05:00;8.88;;;6.50;;
53253;SDS011;39148;53.332;6.922;2023-04-06T11:07:27;8.95;;;6.05;;
53253;SDS011;39148;53.332;6.922;2023-04-06T11:09:55;8.05;;;6.10;;
53253;SDS011;39148;53.332;6.922;2023-04-06T11:12:22;8.77;;;6.20;;
53253;SDS011;39148;53.332;6.922;2023-04-06T11:14:59;9.00;;;6.60;;
53253;SDS011;39148;53.332;6.922;2023-04-06T11:17:32;9.07;;;6.40;;
53253;SDS011;39148;53.332;6.922;2023-04-06T11:19:59;8.18;;;6.28;;
53253;SDS011;39148;53.332;6.922;2023-04-06T11:22:25;9.38;;;6.57;;
53253;SDS011;39148;53.332;6.922;2023-04-06T11:24:52;8.77;;;6.43;;
53253;SDS011;39148;53.332;6.922;2023-04-06T11:27:19;10.02;;;7.10;;
53253;SDS011;39148;53.332;6.922;2023-04-06T11:29:45;9.00;;;6.95;;
53253;SDS011;39148;53.332;6.922;2023-04-06T11:32:19;11.20;;;7.20;;
53253;SDS011;39148;53.332;6.922;2023-04-06T11:34:45;10.65;;;7.55;;
53253;SDS011;39148;53.332;6.922;2023-04-06T11:37:12;11.02;;;7.47;;
53253;SDS011;39148;53.332;6.922;2023-04-06T11:39:40;10.02;;;7.35;;
53253;SDS011;39148;53.332;6.922;2023-04-06T11:42:06;10.00;;;7.55;;
53253;SDS011;39148;53.332;6.922;2023-04-06T11:44:37;11.25;;;7.50;;
53253;SDS011;39148;53.332;6.922;2023-04-06T11:47:08;10.05;;;7.78;;
53253;SDS011;39148;53.332;6.922;2023-04-06T11:49:36;9.40;;;7.38;;
53253;SDS011;39148;53.332;6.922;2023-04-06T11:52:02;11.82;;;8.07;;
53253;SDS011;39148;53.332;6.922;2023-04-06T11:54:39;11.15;;;8.45;;
53253;SDS011;39148;53.332;6.922;2023-04-06T11:57:07;10.38;;;7.85;;
53253;SDS011;39148;53.332;6.922;2023-04-06T11:59:33;11.23;;;8.05;;
53253;SDS011;39148;53.332;6.922;2023-04-06T12:02:03;11.57;;;7.70;;
53253;SDS011;39148;53.332;6.922;2023-04-06T12:04:29;12.75;;;8.32;;
53253;SDS011;39148;53.332;6.922;2023-04-06T12:06:55;11.07;;;8.07;;
53253;SDS011;39148;53.332;6.922;2023-04-06T12:09:21;12.55;;;8.15;;
53253;SDS011;39148;53.332;6.922;2023-04-06T12:11:48;13.70;;;8.95;;
53253;SDS011;39148;53.332;6.922;2023-04-06T12:14:13;11.52;;;9.20;;
53253;SDS011;39148;53.332;6.922;2023-04-06T12:16:40;10.93;;;8.45;;
53253;SDS011;39148;53.332;6.922;2023-04-06T12:19:06;11.50;;;8.85;;
53253;SDS011;39148;53.332;6.922;2023-04-06T12:21:33;13.93;;;10.05;;
53253;SDS011;39148;53.332;6.922;2023-04-06T12:24:01;11.75;;;9.48;;
53253;SDS011;39148;53.332;6.922;2023-04-06T12:26:27;11.48;;;9.18;;
53253;SDS011;39148;53.332;6.922;2023-04-06T12:28:53;12.55;;;9.23;;
53253;SDS011;39148;53.332;6.922;2023-04-06T12:31:20;13.52;;;9.48;;
53253;SDS011;39148;53.332;6.922;2023-04-06T12:33:47;13.38;;;10.57;;
53253;SDS011;39148;53.332;6.922;2023-04-06T12:36:17;13.95;;;9.85;;
53253;SDS011;39148;53.332;6.922;2023-04-06T12:38:46;12.52;;;10.20;;
53253;SDS011;39148;53.332;6.922;2023-04-06T12:41:12;13.35;;;9.90;;
53253;SDS011;39148;53.332;6.922;2023-04-06T12:43:39;13.75;;;10.50;;
53253;SDS011;39148;53.332;6.922;2023-04-06T12:46:05;13.98;;;10.57;;
53253;SDS011;39148;53.332;6.922;2023-04-06T12:48:31;14.07;;;10.75;;
53253;SDS011;39148;53.332;6.922;2023-04-06T12:50:58;13.48;;;10.70;;
53253;SDS011;39148;53.332;6.922;2023-04-06T12:53:25;18.98;;;12.30;;
53253;SDS011;39148;53.332;6.922;2023-04-06T12:55:53;14.70;;;11.48;;
53253;SDS011;39148;53.332;6.922;2023-04-06T12:58:19;14.68;;;11.32;;
53253;SDS011;39148;53.332;6.922;2023-04-06T13:00:47;15.32;;;11.88;;
53253;SDS011;39148;53.332;6.922;2023-04-06T13:03:13;17.33;;;11.68;;
53253;SDS011;39148;53.332;6.922;2023-04-06T13:05:49;13.98;;;11.23;;
53253;SDS011;39148;53.332;6.922;2023-04-06T13:08:15;14.45;;;11.38;;
53253;SDS011;39148;53.332;6.922;2023-04-06T13:10:44;14.27;;;11.40;;
53253;SDS011;39148;53.332;6.922;2023-04-06T13:13:09;16.40;;;11.90;;
53253;SDS011;39148;53.332;6.922;2023-04-06T13:15:35;14.77;;;12.05;;
53253;SDS011;39148;53.332;6.922;2023-04-06T13:18:02;15.80;;;11.65;;
53253;SDS011;39148;53.332;6.922;2023-04-06T13:20:28;14.85;;;11.30;;
53253;SDS011;39148;53.332;6.922;2023-04-06T13:22:55;15.10;;;12.10;;
53253;SDS011;39148;53.332;6.922;2023-04-06T13:25:20;15.38;;;11.77;;
53253;SDS011;39148;53.332;6.922;2023-04-06T13:27:46;15.63;;;12.65;;
53253;SDS011;39148;53.332;6.922;2023-04-06T13:30:14;15.73;;;12.68;;
53253;SDS011;39148;53.332;6.922;2023-04-06T13:32:40;16.42;;;12.18;;
53253;SDS011;39148;53.332;6.922;2023-04-06T13:35:06;16.02;;;13.25;;
53253;SDS011;39148;53.332;6.922;2023-04-06T13:37:33;15.48;;;12.30;;
53253;SDS011;39148;53.332;6.922;2023-04-06T13:39:59;16.73;;;13.63;;
53253;SDS011;39148;53.332;6.922;2023-04-06T13:42:25;17.70;;;13.50;;
53253;SDS011;39148;53.332;6.922;2023-04-06T13:44:52;17.05;;;13.13;;
53253;SDS011;39148;53.332;6.922;2023-04-06T13:47:18;17.80;;;13.57;;
53253;SDS011;39148;53.332;6.922;2023-04-06T13:49:45;15.85;;;12.75;;
53253;SDS011;39148;53.332;6.922;2023-04-06T13:52:12;19.10;;;14.35;;
53253;SDS011;39148;53.332;6.922;2023-04-06T13:54:38;17.35;;;13.88;;
53253;SDS011;39148;53.332;6.922;2023-04-06T13:57:04;15.85;;;13.07;;
53253;SDS011;39148;53.332;6.922;2023-04-06T13:59:36;15.93;;;13.55;;
53253;SDS011;39148;53.332;6.922;2023-04-06T14:02:02;18.88;;;13.98;;
53253;SDS011;39148;53.332;6.922;2023-04-06T14:04:28;16.80;;;13.43;;
53253;SDS011;39148;53.332;6.922;2023-04-06T14:06:55;18.52;;;14.07;;
53253;SDS011;39148;53.332;6.922;2023-04-06T14:09:22;17.42;;;14.27;;
53253;SDS011;39148;53.332;6.922;2023-04-06T14:11:48;16.13;;;13.68;;
53253;SDS011;39148;53.332;6.922;2023-04-06T14:14:14;17.73;;;14.07;;
53253;SDS011;39148;53.332;6.922;2023-04-06T14:16:40;18.33;;;13.90;;
53253;SDS011;39148;53.332;6.922;2023-04-06T14:19:09;17.33;;;14.60;;
53253;SDS011;39148;53.332;6.922;2023-04-06T14:21:40;17.55;;;14.05;;
53253;SDS011;39148;53.332;6.922;2023-04-06T14:24:06;16.42;;;13.40;;
53253;SDS011;39148;53.332;6.922;2023-04-06T14:26:33;18.60;;;15.40;;
53253;SDS011;39148;53.332;6.922;2023-04-06T14:28:59;17.35;;;14.07;;
53253;SDS011;39148;53.332;6.922;2023-04-06T14:31:26;15.25;;;13.52;;
53253;SDS011;39148;53.332;6.922;2023-04-06T14:33:52;18.35;;;15.15;;
53253;SDS011;39148;53.332;6.922;2023-04-06T14:36:18;16.55;;;14.73;;
53253;SDS011;39148;53.332;6.922;2023-04-06T14:38:44;18.08;;;14.85;;
53253;SDS011;39148;53.332;6.922;2023-04-06T14:41:16;19.33;;;15.50;;
53253;SDS011;39148;53.332;6.922;2023-04-06T14:43:43;17.02;;;15.10;;
53253;SDS011;39148;53.332;6.922;2023-04-06T14:46:09;18.20;;;15.20;;